createdAt,value
2022-11-18T00:01:24.489Z,28.67
2022-11-18T00:02:57.897Z,29.20
2022-11-18T00:04:31.093Z,24.55
2022-11-18T00:06:05.935Z,30.63
2022-11-18T00:07:39.164Z,25.65
2022-11-18T00:09:12.474Z,27.88
2022-11-18T00:10:44.695Z,30.33
2022-11-18T00:12:35.796Z,30.52
2022-11-18T00:14:23.709Z,22.40
2022-11-18T00:16:02.054Z,18.65
2022-11-18T00:17:35.210Z,13.45
2022-11-18T00:19:07.419Z,15.55
2022-11-18T00:20:40.618Z,12.32
2022-11-18T00:22:15.206Z,19.25
2022-11-18T00:23:50.128Z,15.23
2022-11-18T00:25:23.562Z,14.20
2022-11-18T00:26:57.169Z,12.00
2022-11-18T00:28:29.733Z,16.40
2022-11-18T00:30:02.898Z,10.32
2022-11-18T00:31:36.502Z,17.23
2022-11-18T00:33:08.700Z,18.05
2022-11-18T00:34:42.476Z,15.85
2022-11-18T00:36:14.581Z,16.85
2022-11-18T00:37:49.228Z,16.10
2022-11-18T00:39:22.993Z,16.25
2022-11-18T00:41:02.708Z,13.40
2022-11-18T00:42:53.783Z,9.98
2022-11-18T00:44:26.247Z,12.93
2022-11-18T00:45:59.649Z,12.95
2022-11-18T00:47:32.897Z,12.50
2022-11-18T00:49:05.110Z,10.43
2022-11-18T00:50:38.442Z,10.35
2022-11-18T00:52:11.598Z,11.82
2022-11-18T00:53:46.499Z,11.00
2022-11-18T00:55:19.658Z,12.63
2022-11-18T00:56:53.001Z,9.32
2022-11-18T00:58:26.162Z,10.93
2022-11-18T00:59:59.412Z,10.80
2022-11-18T01:01:32.235Z,17.02
2022-11-18T01:03:05.794Z,16.52
2022-11-18T01:04:38.911Z,10.60
2022-11-18T01:06:11.074Z,10.68
2022-11-18T01:07:44.282Z,13.45
2022-11-18T01:09:19.270Z,18.70
2022-11-18T01:10:52.761Z,16.33
2022-11-18T01:12:43.503Z,11.23
2022-11-18T01:14:15.674Z,8.77
2022-11-18T01:15:52.195Z,10.13
2022-11-18T01:17:25.342Z,12.25
2022-11-18T01:18:57.778Z,10.43
2022-11-18T01:20:33.269Z,7.97
2022-11-18T01:22:06.629Z,8.90
2022-11-18T01:23:40.041Z,7.45
2022-11-18T01:25:14.665Z,6.65
2022-11-18T01:26:47.860Z,7.50
2022-11-18T01:28:23.805Z,7.93
2022-11-18T01:29:57.411Z,9.63
2022-11-18T01:31:29.622Z,9.25
2022-11-18T01:33:03.891Z,8.10
2022-11-18T01:34:36.129Z,8.93
2022-11-18T01:36:17.491Z,8.25
2022-11-18T01:37:50.742Z,8.93
2022-11-18T01:39:23.886Z,6.32
2022-11-18T01:41:00.011Z,13.02
2022-11-18T01:42:33.308Z,10.13
2022-11-18T01:44:26.614Z,10.65
2022-11-18T01:45:59.783Z,6.82
2022-11-18T01:47:37.553Z,7.43
2022-11-18T01:49:16.016Z,9.02
2022-11-18T01:50:52.441Z,13.13
2022-11-18T01:52:26.004Z,6.45
2022-11-18T01:54:04.445Z,11.68
2022-11-18T01:55:42.154Z,10.38
2022-11-18T01:57:22.787Z,10.48
2022-11-18T01:58:58.887Z,12.73
2022-11-18T02:00:32.178Z,13.02
2022-11-18T02:02:09.865Z,14.40
2022-11-18T02:03:44.681Z,29.05
2022-11-18T02:05:17.687Z,20.13
2022-11-18T02:06:51.125Z,17.80
2022-11-18T02:08:24.786Z,15.10
2022-11-18T02:10:00.719Z,20.58
2022-11-18T02:11:54.448Z,22.15
2022-11-18T02:13:29.230Z,20.13
2022-11-18T02:15:03.670Z,16.10
2022-11-18T02:16:47.914Z,29.33
2022-11-18T02:18:34.897Z,50.35
2022-11-18T02:20:30.399Z,16.70
2022-11-18T02:22:14.609Z,23.55
2022-11-18T02:24:15.432Z,34.22
2022-11-18T02:26:05.681Z,30.85
2022-11-18T02:28:09.301Z,23.25
2022-11-18T02:29:47.409Z,22.38
2022-11-18T02:31:28.730Z,25.30
2022-11-18T02:33:09.801Z,25.35
2022-11-18T02:34:50.799Z,23.08
2022-11-18T02:36:28.786Z,19.05
2022-11-18T02:38:06.461Z,18.70
2022-11-18T02:39:43.446Z,22.70
2022-11-18T02:41:19.646Z,19.45
2022-11-18T02:42:59.949Z,24.75
2022-11-18T02:44:35.162Z,21.60
2022-11-18T02:46:12.343Z,24.40
2022-11-18T02:47:49.064Z,33.63
2022-11-18T02:49:25.382Z,21.10
2022-11-18T02:51:01.098Z,21.27
2022-11-18T02:52:37.085Z,27.48
2022-11-18T02:54:12.386Z,34.63
2022-11-18T02:55:47.277Z,35.65
2022-11-18T02:57:22.451Z,41.33
2022-11-18T02:58:54.597Z,91.53
2022-11-18T03:00:27.925Z,62.63
2022-11-18T03:02:01.601Z,48.85
2022-11-18T03:03:36.778Z,65.70
2022-11-18T03:05:13.462Z,110.40
2022-11-18T03:06:51.659Z,86.10
2022-11-18T03:08:28.177Z,49.13
2022-11-18T03:10:02.996Z,37.90
2022-11-18T03:11:45.534Z,60.80
2022-11-18T03:13:26.017Z,98.07
2022-11-18T03:15:09.012Z,114.22
2022-11-18T03:16:47.122Z,48.50
2022-11-18T03:18:28.985Z,83.30
2022-11-18T03:20:12.421Z,75.00
2022-11-18T03:21:52.562Z,154.98
2022-11-18T03:23:31.476Z,202.95
2022-11-18T03:25:09.088Z,56.08
2022-11-18T03:26:47.438Z,83.35
2022-11-18T03:28:27.373Z,63.95
2022-11-18T03:30:07.219Z,79.95
2022-11-18T03:31:43.888Z,55.13
2022-11-18T03:33:25.634Z,65.05
2022-11-18T03:35:03.461Z,104.40
2022-11-18T03:36:40.632Z,89.30
2022-11-18T03:38:17.363Z,61.17
2022-11-18T03:39:52.866Z,152.98
2022-11-18T03:41:29.513Z,109.97
2022-11-18T03:43:07.585Z,34.33
2022-11-18T03:44:49.591Z,16.83
2022-11-18T03:46:33.016Z,30.85
2022-11-18T03:48:12.748Z,63.00
2022-11-18T03:49:54.618Z,54.42
2022-11-18T03:51:33.801Z,31.83
2022-11-18T03:53:08.766Z,28.88
2022-11-18T03:54:44.137Z,18.20
2022-11-18T03:56:21.094Z,70.30
2022-11-18T03:58:00.493Z,39.40
2022-11-18T03:59:38.403Z,96.47
2022-11-18T04:01:15.491Z,34.13
2022-11-18T04:02:51.625Z,71.43
2022-11-18T04:04:28.013Z,54.40
2022-11-18T04:06:09.737Z,59.35
2022-11-18T04:07:53.762Z,76.25
2022-11-18T04:09:33.784Z,59.42
2022-11-18T04:11:34.317Z,67.22
2022-11-18T04:13:10.880Z,78.35
2022-11-18T04:14:45.579Z,66.07
2022-11-18T04:16:18.835Z,178.23
2022-11-18T04:17:52.031Z,71.45
2022-11-18T04:19:24.405Z,70.07
2022-11-18T04:20:57.687Z,83.60
2022-11-18T04:22:31.265Z,53.47
2022-11-18T04:24:04.885Z,107.03
2022-11-18T04:25:38.601Z,90.72
2022-11-18T04:27:11.306Z,111.70
2022-11-18T04:28:44.461Z,100.50
2022-11-18T04:30:18.462Z,59.28
2022-11-18T04:31:50.855Z,82.88
2022-11-18T04:33:24.028Z,43.72
2022-11-18T04:34:56.205Z,72.65
2022-11-18T04:36:29.379Z,132.93
2022-11-18T04:38:05.091Z,281.02
2022-11-18T04:39:38.443Z,74.20
2022-11-18T04:41:11.614Z,91.35
2022-11-18T04:42:44.117Z,135.15
2022-11-18T04:44:17.504Z,178.30
2022-11-18T04:45:50.688Z,144.80
2022-11-18T04:47:24.029Z,100.07
2022-11-18T04:48:56.167Z,125.38
2022-11-18T04:50:29.617Z,122.20
2022-11-18T04:52:04.373Z,114.53
2022-11-18T04:53:39.014Z,127.82
2022-11-18T04:55:12.241Z,137.85
2022-11-18T04:56:49.029Z,146.93
2022-11-18T04:58:22.719Z,148.60
2022-11-18T04:59:55.915Z,123.60
2022-11-18T05:01:28.495Z,127.95
2022-11-18T05:03:01.853Z,110.80
2022-11-18T05:04:36.271Z,150.10
2022-11-18T05:06:08.447Z,82.20
2022-11-18T05:07:41.664Z,102.22
2022-11-18T05:09:15.842Z,158.25
2022-11-18T05:10:49.162Z,228.90
2022-11-18T05:12:40.137Z,130.60
2022-11-18T05:14:12.533Z,211.25
2022-11-18T05:15:45.886Z,145.75
2022-11-18T05:17:19.641Z,102.28
2022-11-18T05:18:52.833Z,115.28
2022-11-18T05:20:26.006Z,94.20
2022-11-18T05:21:59.356Z,156.52
2022-11-18T05:23:31.498Z,142.68
2022-11-18T05:25:06.698Z,120.15
2022-11-18T05:26:39.866Z,80.95
2022-11-18T05:28:13.200Z,79.28
2022-11-18T05:29:46.366Z,99.45
2022-11-18T05:31:18.761Z,71.00
2022-11-18T05:32:51.880Z,75.68
2022-11-18T05:34:24.190Z,74.43
2022-11-18T05:35:57.338Z,72.35
2022-11-18T05:37:33.742Z,47.90
2022-11-18T05:39:06.114Z,47.63
2022-11-18T05:40:43.297Z,42.50
2022-11-18T05:42:33.806Z,39.40
2022-11-18T05:44:06.295Z,72.38
2022-11-18T05:45:39.617Z,47.80
2022-11-18T05:47:12.078Z,40.58
2022-11-18T05:48:45.226Z,45.15
2022-11-18T05:50:21.223Z,34.45
2022-11-18T05:51:54.704Z,40.03
2022-11-18T05:53:27.946Z,42.08
2022-11-18T05:55:01.477Z,56.50
2022-11-18T05:56:38.410Z,42.97
2022-11-18T05:58:11.561Z,34.15
2022-11-18T05:59:44.901Z,43.17
2022-11-18T06:01:22.979Z,33.88
2022-11-18T06:02:58.296Z,30.77
2022-11-18T06:04:35.261Z,30.98
2022-11-18T06:06:10.370Z,57.13
2022-11-18T06:07:45.260Z,44.40
2022-11-18T06:09:22.887Z,53.28
2022-11-18T06:10:56.627Z,104.60
2022-11-18T06:12:35.982Z,44.50
2022-11-18T06:14:13.455Z,59.08
2022-11-18T06:15:47.639Z,63.83
2022-11-18T06:17:25.718Z,31.15
2022-11-18T06:19:00.015Z,44.13
2022-11-18T06:20:35.908Z,44.70
2022-11-18T06:22:09.874Z,49.25
2022-11-18T06:23:44.153Z,75.03
2022-11-18T06:25:18.284Z,62.75
2022-11-18T06:26:51.600Z,39.85
2022-11-18T06:28:27.918Z,104.50
2022-11-18T06:30:01.054Z,70.97
2022-11-18T06:31:34.381Z,123.85
2022-11-18T06:33:08.497Z,63.65
2022-11-18T06:34:42.167Z,68.60
2022-11-18T06:36:15.412Z,57.22
2022-11-18T06:37:49.077Z,52.30
2022-11-18T06:39:22.384Z,74.80
2022-11-18T06:40:59.465Z,144.55
2022-11-18T06:42:49.989Z,97.55
2022-11-18T06:44:24.648Z,85.80
2022-11-18T06:46:17.251Z,67.32
2022-11-18T06:47:50.485Z,89.82
2022-11-18T06:49:23.702Z,61.38
2022-11-18T06:50:55.928Z,100.93
2022-11-18T06:52:29.176Z,62.50
2022-11-18T06:54:07.496Z,132.35
2022-11-18T06:55:43.458Z,77.45
2022-11-18T06:57:17.094Z,126.43
2022-11-18T06:58:55.121Z,70.55
2022-11-18T07:00:29.947Z,37.78
2022-11-18T07:02:03.190Z,45.97
2022-11-18T07:03:35.427Z,128.35
2022-11-18T07:05:09.090Z,78.85
2022-11-18T07:06:42.342Z,97.65
2022-11-18T07:08:15.528Z,94.53
2022-11-18T07:09:48.791Z,83.45
2022-11-18T07:11:23.728Z,122.90
2022-11-18T07:12:56.955Z,56.65
2022-11-18T07:14:30.073Z,65.28
2022-11-18T07:16:06.496Z,41.90
2022-11-18T07:17:39.620Z,114.95
2022-11-18T07:19:14.799Z,43.03
2022-11-18T07:20:48.110Z,66.47
2022-11-18T07:22:21.388Z,71.60
2022-11-18T07:23:55.381Z,126.10
2022-11-18T07:25:30.031Z,53.92
2022-11-18T07:27:03.235Z,90.93
2022-11-18T07:28:36.054Z,63.20
2022-11-18T07:30:10.049Z,75.85
2022-11-18T07:31:44.711Z,34.90
2022-11-18T07:33:17.961Z,86.80
2022-11-18T07:34:51.210Z,65.43
2022-11-18T07:36:29.653Z,58.28
2022-11-18T07:38:06.078Z,38.22
2022-11-18T07:39:39.207Z,44.45
2022-11-18T07:41:14.626Z,67.45
2022-11-18T07:42:47.795Z,89.75
2022-11-18T07:44:29.746Z,55.45
2022-11-18T07:46:11.533Z,49.95
2022-11-18T07:47:46.180Z,29.77
2022-11-18T07:49:19.745Z,38.88
2022-11-18T07:50:54.107Z,22.45
2022-11-18T07:52:27.290Z,24.75
2022-11-18T07:54:00.504Z,21.67
2022-11-18T07:55:33.651Z,17.38
2022-11-18T07:57:06.899Z,28.00
2022-11-18T07:58:40.079Z,42.65
2022-11-18T08:00:15.283Z,36.17
2022-11-18T08:01:48.606Z,59.00
2022-11-18T08:03:26.003Z,65.47
2022-11-18T08:04:59.185Z,55.47
2022-11-18T08:06:33.885Z,34.90
2022-11-18T08:08:07.046Z,42.00
2022-11-18T08:09:40.306Z,33.22
2022-11-18T08:11:21.656Z,33.83
2022-11-18T08:12:57.083Z,34.65
2022-11-18T08:14:30.456Z,27.02
2022-11-18T08:16:05.114Z,21.98
2022-11-18T08:17:38.306Z,22.05
2022-11-18T08:19:12.930Z,23.10
2022-11-18T08:20:46.110Z,27.48
2022-11-18T08:22:20.858Z,22.85
2022-11-18T08:23:55.774Z,19.20
2022-11-18T08:25:29.388Z,49.33
2022-11-18T08:27:02.523Z,25.25
2022-11-18T08:28:36.505Z,24.05
2022-11-18T08:30:10.997Z,29.20
2022-11-18T08:31:44.221Z,24.10
2022-11-18T08:33:17.360Z,26.17
2022-11-18T08:34:52.217Z,24.65
2022-11-18T08:36:28.193Z,29.27
2022-11-18T08:38:01.683Z,28.85
2022-11-18T08:39:34.848Z,30.42
2022-11-18T08:41:08.363Z,36.42
2022-11-18T08:42:41.560Z,24.02
2022-11-18T08:44:16.511Z,24.48
2022-11-18T08:45:49.610Z,29.80
2022-11-18T08:47:22.913Z,29.27
2022-11-18T08:48:56.069Z,24.70
2022-11-18T08:50:30.680Z,28.15
2022-11-18T08:52:04.349Z,26.23
2022-11-18T08:53:37.877Z,27.52
2022-11-18T08:55:11.450Z,28.73
2022-11-18T08:56:44.658Z,29.77
2022-11-18T08:58:18.711Z,23.88
2022-11-18T08:59:52.128Z,33.03
2022-11-18T09:01:25.548Z,29.85
2022-11-18T09:02:58.791Z,32.67
2022-11-18T09:04:31.933Z,30.63
2022-11-18T09:06:10.961Z,31.25
2022-11-18T09:07:44.149Z,27.45
2022-11-18T09:09:17.558Z,27.90
2022-11-18T09:10:50.696Z,28.48
2022-11-18T09:12:24.081Z,31.13
2022-11-18T09:15:52.018Z,34.15
2022-11-18T09:17:25.254Z,27.85
2022-11-18T09:19:08.477Z,34.45
2022-11-18T09:20:55.663Z,29.35
2022-11-18T09:22:30.350Z,28.08
2022-11-18T09:24:06.308Z,24.05
2022-11-18T09:25:40.076Z,34.45
2022-11-18T09:27:17.045Z,29.90
2022-11-18T09:28:51.180Z,36.42
2022-11-18T09:30:24.325Z,33.70
2022-11-18T09:31:58.147Z,37.67
2022-11-18T09:33:31.348Z,35.75
2022-11-18T09:35:05.011Z,30.70
2022-11-18T09:36:38.212Z,25.50
2022-11-18T09:38:12.944Z,26.67
2022-11-18T09:39:46.094Z,29.92
2022-11-18T09:41:34.295Z,29.73
2022-11-18T09:43:13.579Z,29.27
2022-11-18T09:45:00.676Z,31.25
2022-11-18T09:46:56.422Z,31.30
2022-11-18T09:48:43.464Z,21.85
2022-11-18T09:50:47.928Z,24.63
2022-11-18T09:52:20.001Z,38.50
2022-11-18T09:53:54.565Z,19.23
2022-11-18T09:55:27.802Z,21.13
2022-11-18T09:57:01.280Z,23.95
2022-11-18T09:58:36.787Z,22.95
2022-11-18T10:00:16.334Z,21.35
2022-11-18T10:01:50.947Z,14.27
2022-11-18T10:03:29.190Z,18.02
2022-11-18T10:05:09.646Z,13.40
2022-11-18T10:06:42.932Z,22.05
2022-11-18T10:08:26.019Z,12.98
2022-11-18T10:10:13.313Z,11.82
2022-11-18T10:11:54.543Z,10.27
2022-11-18T10:13:45.788Z,10.90
2022-11-18T10:15:28.162Z,10.52
2022-11-18T10:17:09.155Z,13.27
2022-11-18T10:19:00.709Z,11.73
2022-11-18T10:20:44.743Z,11.18
2022-11-18T10:22:27.507Z,11.55
2022-11-18T10:24:04.064Z,17.63
2022-11-18T10:25:38.739Z,12.27
2022-11-18T10:27:14.333Z,17.30
2022-11-18T10:28:47.549Z,17.83
2022-11-18T10:30:22.045Z,11.75
2022-11-18T10:32:04.173Z,10.63
2022-11-18T10:33:38.975Z,11.63
2022-11-18T10:35:25.925Z,13.93
2022-11-18T10:37:04.037Z,12.20
2022-11-18T10:38:37.612Z,8.48
2022-11-18T10:40:25.472Z,9.18
2022-11-18T10:42:03.123Z,16.75
2022-11-18T10:43:48.910Z,8.32
2022-11-18T10:45:27.910Z,11.15
2022-11-18T10:47:31.758Z,11.57
2022-11-18T10:49:17.614Z,17.65
2022-11-18T10:50:55.484Z,14.77
2022-11-18T10:52:31.014Z,11.93
2022-11-18T10:54:09.645Z,14.77
2022-11-18T10:55:42.956Z,20.90
2022-11-18T10:57:21.913Z,15.55
2022-11-18T10:58:55.568Z,13.55
2022-11-18T11:00:43.958Z,15.25
2022-11-18T11:02:20.757Z,14.82
2022-11-18T11:04:01.358Z,13.23
2022-11-18T11:05:34.627Z,15.25
2022-11-18T11:07:17.712Z,13.05
2022-11-18T11:08:52.584Z,15.82
2022-11-18T11:10:25.837Z,10.55
2022-11-18T11:12:05.058Z,10.30
2022-11-18T11:13:43.411Z,7.78
2022-11-18T11:15:22.861Z,10.50
2022-11-18T11:17:05.074Z,10.50
2022-11-18T11:18:42.180Z,7.80
2022-11-18T11:20:21.086Z,10.40
2022-11-18T11:21:54.387Z,11.15
2022-11-18T11:23:28.008Z,7.60
2022-11-18T11:25:01.251Z,8.77
2022-11-18T11:28:41.459Z,9.40
2022-11-18T11:30:20.742Z,14.35
2022-11-18T11:32:06.551Z,6.38
2022-11-18T11:33:50.382Z,9.02
2022-11-18T11:35:26.992Z,7.97
2022-11-18T11:37:08.241Z,11.43
2022-11-18T11:39:04.320Z,12.13
2022-11-18T11:40:42.355Z,10.48
2022-11-18T11:42:24.654Z,12.80
2022-11-18T11:44:29.635Z,9.70
2022-11-18T11:46:20.843Z,13.27
2022-11-18T11:48:09.339Z,10.85
2022-11-18T11:49:54.360Z,15.27
2022-11-18T11:51:34.406Z,11.50
2022-11-18T11:53:18.594Z,13.13
2022-11-18T11:55:00.105Z,8.35
2022-11-18T11:56:36.740Z,12.27
2022-11-18T11:58:25.386Z,21.40
2022-11-18T12:00:04.772Z,22.15
2022-11-18T12:02:07.919Z,17.27
2022-11-18T12:03:51.993Z,25.27
2022-11-18T12:05:31.221Z,15.60
2022-11-18T12:07:07.811Z,20.52
2022-11-18T12:08:51.040Z,16.63
2022-11-18T12:10:31.772Z,13.57
2022-11-18T12:12:29.985Z,26.13
2022-11-18T12:14:07.483Z,20.58
2022-11-18T12:15:56.514Z,10.00
2022-11-18T12:17:35.245Z,11.90
2022-11-18T12:19:13.427Z,19.00
2022-11-18T12:20:49.051Z,20.83
2022-11-18T12:22:22.269Z,12.82
2022-11-18T12:24:36.608Z,13.60
2022-11-18T12:26:11.206Z,23.00
2022-11-18T12:28:00.226Z,19.38
2022-11-18T12:29:41.361Z,35.05
2022-11-18T12:31:37.535Z,25.55
2022-11-18T12:33:18.078Z,29.85
2022-11-18T12:34:59.390Z,26.58
2022-11-18T12:36:36.031Z,23.70
2022-11-18T12:38:30.283Z,15.43
2022-11-18T12:40:03.576Z,25.50
2022-11-18T12:42:14.524Z,17.33
2022-11-18T12:44:07.790Z,23.92
2022-11-18T12:45:59.846Z,22.65
2022-11-18T12:47:58.740Z,21.88
2022-11-18T12:50:08.744Z,26.63
2022-11-18T12:51:42.862Z,16.88
2022-11-18T12:53:34.245Z,16.35
2022-11-18T12:55:16.859Z,12.82
2022-11-18T12:56:51.755Z,21.02
2022-11-18T12:58:29.893Z,12.73
2022-11-18T13:00:18.464Z,27.02
2022-11-18T13:02:03.885Z,10.50
2022-11-18T13:03:38.666Z,10.82
2022-11-18T13:05:14.222Z,13.50
2022-11-18T13:06:48.307Z,18.20
2022-11-18T13:08:20.468Z,14.75
2022-11-18T13:09:54.569Z,24.08
2022-11-18T13:11:47.591Z,16.38
2022-11-18T13:13:28.743Z,12.68
2022-11-18T13:15:32.508Z,22.05
2022-11-18T13:17:42.829Z,15.57
2022-11-18T13:19:25.334Z,8.68
2022-11-18T13:21:20.034Z,28.40
2022-11-18T13:23:11.834Z,7.95
2022-11-18T13:24:46.034Z,8.75
2022-11-18T13:26:27.101Z,17.25
2022-11-18T13:28:10.749Z,19.35
2022-11-18T13:29:54.123Z,9.68
2022-11-18T13:31:34.497Z,10.18
2022-11-18T13:33:12.920Z,11.80
2022-11-18T13:34:50.261Z,15.45
2022-11-18T13:36:25.264Z,16.27
2022-11-18T13:38:00.446Z,10.90
2022-11-18T13:39:34.457Z,20.75
2022-11-18T13:41:22.711Z,8.80
2022-11-18T13:42:56.463Z,15.30
2022-11-18T13:44:31.564Z,10.15
2022-11-18T13:46:08.181Z,25.63
2022-11-18T13:47:47.817Z,30.95
2022-11-18T13:49:50.360Z,26.25
2022-11-18T13:51:26.739Z,26.98
2022-11-18T13:53:07.590Z,26.83
2022-11-18T13:54:41.146Z,48.13
2022-11-18T13:56:20.595Z,91.18
2022-11-18T13:58:02.990Z,74.32
2022-11-18T13:59:37.174Z,50.88
2022-11-18T14:01:16.913Z,43.55
2022-11-18T14:02:57.665Z,45.13
2022-11-18T14:04:32.973Z,45.10
2022-11-18T14:06:06.603Z,47.05
2022-11-18T14:07:42.385Z,36.30
2022-11-18T14:09:23.897Z,38.90
2022-11-18T14:10:58.273Z,44.50
2022-11-18T14:12:33.469Z,41.72
2022-11-18T14:14:07.825Z,44.15
2022-11-18T14:15:44.043Z,49.30
2022-11-18T14:17:20.333Z,43.40
2022-11-18T14:18:53.659Z,42.15
2022-11-18T14:20:28.025Z,31.42
2022-11-18T14:22:10.074Z,22.75
2022-11-18T14:23:47.479Z,22.75
2022-11-18T14:25:24.520Z,22.55
2022-11-18T14:26:57.714Z,16.15
2022-11-18T14:28:34.018Z,17.17
2022-11-18T14:30:26.355Z,20.77
2022-11-18T14:32:15.033Z,12.13
2022-11-18T14:34:06.690Z,10.82
2022-11-18T14:35:40.288Z,21.58
2022-11-18T14:37:15.291Z,35.90
2022-11-18T14:39:11.857Z,15.68
2022-11-18T14:40:44.611Z,60.70
2022-11-18T14:42:31.431Z,92.65
2022-11-18T14:44:04.928Z,67.45
2022-11-18T14:45:38.794Z,59.58
2022-11-18T14:47:24.333Z,38.35
2022-11-18T14:48:57.513Z,30.90
2022-11-18T14:50:30.772Z,38.70
2022-11-18T14:52:04.724Z,64.05
2022-11-18T14:53:38.148Z,67.55
2022-11-18T14:55:12.499Z,51.38
2022-11-18T14:56:47.580Z,54.42
2022-11-18T14:58:22.165Z,49.22
2022-11-18T14:59:55.444Z,49.78
2022-11-18T15:01:31.018Z,147.40
2022-11-18T15:03:04.718Z,105.00
2022-11-18T15:04:37.903Z,82.03
2022-11-18T15:06:14.876Z,87.75
2022-11-18T15:07:48.099Z,99.95
2022-11-18T15:09:21.405Z,108.38
2022-11-18T15:10:54.553Z,59.30
2022-11-18T15:12:28.285Z,38.60
2022-11-18T15:14:03.396Z,39.40
2022-11-18T15:15:36.745Z,134.68
2022-11-18T15:17:13.706Z,168.27
2022-11-18T15:18:49.196Z,157.75
2022-11-18T15:20:24.165Z,226.15
2022-11-18T15:21:57.811Z,137.55
2022-11-18T15:23:31.190Z,110.22
2022-11-18T15:25:04.582Z,104.40
2022-11-18T15:26:40.796Z,109.50
2022-11-18T15:28:14.049Z,172.10
2022-11-18T15:29:50.428Z,104.95
2022-11-18T15:31:24.663Z,124.63
2022-11-18T15:32:57.833Z,114.63
2022-11-18T15:34:31.061Z,87.60
2022-11-18T15:36:04.264Z,75.30
2022-11-18T15:37:37.569Z,108.95
2022-11-18T15:39:11.685Z,131.70
2022-11-18T15:40:44.913Z,111.45
2022-11-18T15:42:23.157Z,106.75
2022-11-18T15:43:58.555Z,98.28
2022-11-18T15:45:33.094Z,108.18
2022-11-18T15:47:06.371Z,104.65
2022-11-18T15:48:39.559Z,100.30
2022-11-18T15:50:12.987Z,109.38
2022-11-18T15:51:46.144Z,107.13
2022-11-18T15:53:19.398Z,118.57
2022-11-18T15:54:52.549Z,116.25
2022-11-18T15:56:31.265Z,180.95
2022-11-18T15:58:04.448Z,384.35
2022-11-18T15:59:37.726Z,311.23
2022-11-18T16:01:12.596Z,247.93
2022-11-18T16:02:46.024Z,230.20
2022-11-18T16:04:20.130Z,221.45
2022-11-18T16:05:53.706Z,220.07
2022-11-18T16:07:26.915Z,186.23
2022-11-18T16:09:00.731Z,241.52
2022-11-18T16:10:51.548Z,216.57
2022-11-18T16:12:42.090Z,200.73
2022-11-18T16:14:18.278Z,125.28
2022-11-18T16:15:50.737Z,80.68
2022-11-18T16:17:25.299Z,144.15
2022-11-18T16:18:59.726Z,110.55
2022-11-18T16:20:32.974Z,54.92
2022-11-18T16:22:06.191Z,65.53
2022-11-18T16:23:39.446Z,62.05
2022-11-18T16:25:12.721Z,56.65
2022-11-18T16:26:46.102Z,96.85
2022-11-18T16:28:19.277Z,59.30
2022-11-18T16:29:52.422Z,29.00
2022-11-18T16:31:40.122Z,37.08
2022-11-18T16:33:16.350Z,33.15
2022-11-18T16:34:49.683Z,41.78
2022-11-18T16:36:27.200Z,54.13
2022-11-18T16:38:00.446Z,92.00
2022-11-18T16:39:33.619Z,56.28
2022-11-18T16:41:27.126Z,65.05
2022-11-18T16:43:00.345Z,44.60
2022-11-18T16:44:33.668Z,63.92
2022-11-18T16:46:11.786Z,71.45
2022-11-18T16:47:45.538Z,70.97
2022-11-18T16:49:22.445Z,56.65
2022-11-18T16:51:20.319Z,41.60
2022-11-18T16:52:53.491Z,46.30
2022-11-18T16:54:28.606Z,59.90
2022-11-18T16:56:04.293Z,66.03
2022-11-18T16:57:37.623Z,38.67
2022-11-18T16:59:14.137Z,42.47
2022-11-18T17:01:16.776Z,40.42
2022-11-18T17:02:40.710Z,44.30
2022-11-18T17:04:14.095Z,42.50
2022-11-18T17:05:48.623Z,97.25
2022-11-18T17:07:22.158Z,83.35
2022-11-18T17:08:55.524Z,79.70
2022-11-18T17:10:28.820Z,52.45
2022-11-18T17:12:03.303Z,66.03
2022-11-18T17:13:36.846Z,55.00
2022-11-18T17:15:10.799Z,59.72
2022-11-18T17:16:44.132Z,57.88
2022-11-18T17:18:17.281Z,72.68
2022-11-18T17:19:51.128Z,72.60
2022-11-18T17:21:26.621Z,61.88
2022-11-18T17:22:59.845Z,58.80
2022-11-18T17:24:32.989Z,73.38
2022-11-18T17:26:08.040Z,69.90
2022-11-18T17:27:41.291Z,77.15
2022-11-18T17:29:15.313Z,86.32
2022-11-18T17:30:50.114Z,92.07
2022-11-18T17:32:23.633Z,85.40
2022-11-18T17:33:57.678Z,95.25
2022-11-18T17:35:30.917Z,95.10
2022-11-18T17:37:07.179Z,87.65
2022-11-18T17:38:41.915Z,81.78
2022-11-18T17:40:15.342Z,90.32
2022-11-18T17:42:06.100Z,118.80
2022-11-18T17:43:39.299Z,89.03
2022-11-18T17:45:12.572Z,80.18
2022-11-18T17:46:47.354Z,84.20
2022-11-18T17:48:21.100Z,220.73
2022-11-18T17:49:54.259Z,136.15
2022-11-18T17:51:29.230Z,49.53
2022-11-18T17:53:03.779Z,67.28
2022-11-18T17:54:37.686Z,47.15
2022-11-18T17:56:11.178Z,33.95
2022-11-18T17:57:44.504Z,33.20
2022-11-18T17:59:18.029Z,31.55
2022-11-18T18:00:51.223Z,35.30
2022-11-18T18:02:24.392Z,63.85
2022-11-18T18:03:57.622Z,78.10
2022-11-18T18:05:30.892Z,66.40
2022-11-18T18:07:04.250Z,37.15
2022-11-18T18:08:39.293Z,62.85
2022-11-18T18:10:12.562Z,67.07
2022-11-18T18:11:45.804Z,98.15
2022-11-18T18:13:36.762Z,77.90
2022-11-18T18:15:10.390Z,115.88
2022-11-18T18:16:45.538Z,95.32
2022-11-18T18:18:18.704Z,90.60
2022-11-18T18:19:51.976Z,89.25
2022-11-18T18:21:25.287Z,80.18
2022-11-18T18:22:58.800Z,74.95
2022-11-18T18:24:33.352Z,76.85
2022-11-18T18:26:08.113Z,71.10
2022-11-18T18:27:41.423Z,86.82
2022-11-18T18:29:15.049Z,82.18
2022-11-18T18:30:48.171Z,91.68
2022-11-18T18:32:21.428Z,79.57
2022-11-18T18:33:54.661Z,91.15
2022-11-18T18:35:27.914Z,89.90
2022-11-18T18:37:01.370Z,85.18
2022-11-18T18:38:35.231Z,88.22
2022-11-18T18:40:10.919Z,79.72
2022-11-18T18:41:44.234Z,81.68
2022-11-18T18:43:17.484Z,64.50
2022-11-18T18:45:08.424Z,49.13
2022-11-18T18:46:41.630Z,40.25
2022-11-18T18:48:14.925Z,45.03
2022-11-18T18:49:48.116Z,40.35
2022-11-18T18:51:21.454Z,53.67
2022-11-18T18:52:54.644Z,40.97
2022-11-18T18:54:27.966Z,44.65
2022-11-18T18:56:02.594Z,52.30
2022-11-18T18:57:35.927Z,46.13
2022-11-18T18:59:09.866Z,40.30
2022-11-18T19:00:43.122Z,40.67
2022-11-18T19:02:16.336Z,39.30
2022-11-18T19:03:50.160Z,27.67
2022-11-18T19:05:44.688Z,35.10
2022-11-18T19:07:17.428Z,35.50
2022-11-18T19:08:50.783Z,27.70
2022-11-18T19:10:24.020Z,26.90
2022-11-18T19:12:16.325Z,26.95
2022-11-18T19:13:49.774Z,39.72
2022-11-18T19:15:23.233Z,39.63
2022-11-18T19:16:57.508Z,47.08
2022-11-18T19:18:30.749Z,46.75
2022-11-18T19:20:21.709Z,40.25
2022-11-18T19:21:55.060Z,30.80
2022-11-18T19:23:28.430Z,28.17
2022-11-18T19:25:02.234Z,33.65
2022-11-18T19:26:35.866Z,29.85
2022-11-18T19:28:12.669Z,37.63
2022-11-18T19:29:46.049Z,48.97
2022-11-18T19:31:20.284Z,48.40
2022-11-18T19:32:55.910Z,47.25
2022-11-18T19:34:29.139Z,49.42
2022-11-18T19:36:03.141Z,45.22
2022-11-18T19:37:36.505Z,49.20
2022-11-18T19:39:09.891Z,45.50
2022-11-18T19:40:43.074Z,46.22
2022-11-18T19:42:16.313Z,54.38
2022-11-18T19:43:50.859Z,56.17
2022-11-18T19:45:24.168Z,52.03
2022-11-18T19:46:57.391Z,62.13
2022-11-18T19:48:30.831Z,74.80
2022-11-18T19:50:04.574Z,58.58
2022-11-18T19:51:38.360Z,60.95
2022-11-18T19:53:31.843Z,53.35
2022-11-18T19:55:05.661Z,56.38
2022-11-18T19:56:38.872Z,59.08
2022-11-18T19:58:12.043Z,68.78
2022-11-18T19:59:46.594Z,58.17
2022-11-18T20:01:22.933Z,58.88
2022-11-18T20:02:56.176Z,62.90
2022-11-18T20:04:29.624Z,60.75
2022-11-18T20:06:02.047Z,70.75
2022-11-18T20:07:35.718Z,73.80
2022-11-18T20:09:09.571Z,75.15
2022-11-18T20:10:41.784Z,76.22
2022-11-18T20:12:14.933Z,80.00
2022-11-18T20:13:48.820Z,82.63
2022-11-18T20:15:23.478Z,94.30
2022-11-18T20:16:56.822Z,82.85
2022-11-18T20:18:30.524Z,87.97
2022-11-18T20:20:03.907Z,86.72
2022-11-18T20:21:39.329Z,81.97
2022-11-18T20:23:13.121Z,68.15
2022-11-18T20:24:46.396Z,70.90
2022-11-18T20:26:21.627Z,76.20
2022-11-18T20:27:55.088Z,65.28
2022-11-18T20:29:28.425Z,71.75
2022-11-18T20:31:03.380Z,73.65
2022-11-18T20:32:37.342Z,69.10
2022-11-18T20:34:14.308Z,61.47
2022-11-18T20:35:47.561Z,58.95
2022-11-18T20:37:24.368Z,72.50
2022-11-18T20:39:02.827Z,54.90
2022-11-18T20:40:36.892Z,59.63
2022-11-18T20:42:27.755Z,64.40
2022-11-18T20:44:01.474Z,84.65
2022-11-18T20:45:34.643Z,88.68
2022-11-18T20:47:09.334Z,83.03
2022-11-18T20:48:42.714Z,77.00
2022-11-18T20:50:15.877Z,72.47